Time;durP1;ratioP1;P1;durP2;ratioP2;P2;SDS_P1;SDS_P2;PMS_P1;PMS_P2;Temp;Humidity;BMP_temperature;BMP_pressure;BME280_temperature;BME280_humidity;BME280_pressure;Samples;Min_cycle;Max_cycle;Signal;HPM_P1;HPM_P2
2021/03/09 00:00:29;;;;;;;31.93;8.07;;;1.80;99.90;;;;;;5029799;28;20186;-67
2021/03/09 00:02:55;;;;;;;16.07;4.63;;;1.90;99.90;;;;;;5030118;28;20218;-67
2021/03/09 00:05:23;;;;;;;8.93;2.70;;;1.90;99.90;;;;;;5029113;28;20268;-67
2021/03/09 00:07:49;;;;;;;5.70;2.10;;;1.90;99.90;;;;;;5029980;28;20190;-67
2021/03/09 00:10:16;;;;;;;4.53;1.80;;;1.90;99.90;;;;;;5028090;28;20218;-67
2021/03/09 00:12:42;;;;;;;3.87;1.30;;;1.80;99.90;;;;;;5028657;28;20217;-67
2021/03/09 00:15:10;;;;;;;1.33;1.23;;;1.80;99.90;;;;;;5027786;28;20198;-67
2021/03/09 00:17:36;;;;;;;1.60;1.27;;;1.80;99.90;;;;;;5030773;28;20280;-67
2021/03/09 00:20:05;;;;;;;1.13;1.03;;;1.80;99.90;;;;;;5029329;28;20190;-74
2021/03/09 00:22:32;;;;;;;2.67;1.30;;;1.80;99.90;;;;;;5030195;28;20629;-74
2021/03/09 00:24:59;;;;;;;147.87;12.23;;;1.80;99.90;;;;;;5029254;28;20233;-74
2021/03/09 00:27:25;;;;;;;404.10;47.83;;;1.80;99.90;;;;;;5032839;28;20217;-74
2021/03/09 00:29:52;;;;;;;138.23;21.83;;;1.90;99.90;;;;;;5033186;28;20221;-73
2021/03/09 00:32:19;;;;;;;98.90;13.40;;;1.90;99.90;;;;;;5031187;28;20217;-74
2021/03/09 00:34:45;;;;;;;56.27;10.23;;;2.00;99.90;;;;;;5033430;28;20218;-74
2021/03/09 00:37:12;;;;;;;294.93;26.30;;;2.10;99.90;;;;;;5032044;28;20574;-74
2021/03/09 00:39:39;;;;;;;396.10;45.23;;;2.10;99.90;;;;;;5032913;28;20198;-74
2021/03/09 00:42:07;;;;;;;508.07;65.00;;;2.10;99.90;;;;;;5065257;28;20312;-74
2021/03/09 00:44:33;;;;;;;168.67;26.33;;;2.20;99.90;;;;;;5064799;28;20301;-74
2021/03/09 00:46:59;;;;;;;82.20;12.73;;;2.20;99.90;;;;;;5032272;28;20210;-74
2021/03/09 00:49:26;;;;;;;29.37;6.33;;;2.30;99.90;;;;;;5048056;28;20194;-74
2021/03/09 00:51:52;;;;;;;17.30;4.17;;;2.30;99.90;;;;;;5033228;28;20194;-74
2021/03/09 00:54:19;;;;;;;5.77;3.03;;;2.30;99.90;;;;;;5032694;28;20198;-74
2021/03/09 00:56:47;;;;;;;3.97;2.17;;;2.40;99.90;;;;;;5031544;28;20275;-74
2021/03/09 00:59:16;;;;;;;4.07;2.53;;;2.40;99.90;;;;;;5031436;28;20241;-74
2021/03/09 01:01:42;;;;;;;6.47;2.73;;;2.40;99.90;;;;;;5031780;28;20558;-73
2021/03/09 01:04:09;;;;;;;6.47;2.70;;;2.40;99.90;;;;;;5033133;28;20277;-73
2021/03/09 01:06:35;;;;;;;5.13;2.30;;;2.40;99.90;;;;;;5031243;28;20297;-73
2021/03/09 01:09:02;;;;;;;3.63;2.17;;;2.40;99.90;;;;;;5031439;28;20225;-73
2021/03/09 01:11:28;;;;;;;3.77;2.20;;;2.40;99.90;;;;;;5029972;28;20206;-74
2021/03/09 01:13:56;;;;;;;4.70;2.70;;;2.40;99.90;;;;;;5031530;28;20292;-73
2021/03/09 01:16:23;;;;;;;6.50;2.83;;;2.50;99.90;;;;;;5033115;28;20236;-72
2021/03/09 01:18:49;;;;;;;9.63;3.63;;;2.50;99.90;;;;;;5031243;28;20285;-74
2021/03/09 01:21:15;;;;;;;5.00;2.40;;;2.50;99.90;;;;;;5031391;28;20805;-73
2021/03/09 01:23:42;;;;;;;5.87;2.47;;;2.50;99.90;;;;;;5031188;28;20210;-73
2021/03/09 01:26:08;;;;;;;6.80;2.57;;;2.50;99.90;;;;;;5032279;28;20191;-73
2021/03/09 01:28:35;;;;;;;5.17;2.40;;;2.50;99.90;;;;;;5030788;28;20741;-74
2021/03/09 01:31:03;;;;;;;8.10;2.60;;;2.50;99.90;;;;;;5032684;28;20283;-73
2021/03/09 01:33:29;;;;;;;3.57;1.70;;;2.10;99.90;;;;;;5031033;28;20191;-73
2021/03/09 01:35:56;;;;;;;2.93;1.83;;;2.60;99.90;;;;;;5032414;28;20214;-73
2021/03/09 01:38:22;;;;;;;6.27;1.97;;;2.50;99.90;;;;;;5031676;28;20674;-73
2021/03/09 01:40:49;;;;;;;236.80;19.67;;;2.60;99.90;;;;;;5030670;28;20229;-73
2021/03/09 01:43:16;;;;;;;285.57;33.67;;;2.60;99.90;;;;;;5031189;28;20281;-73
2021/03/09 01:45:42;;;;;;;237.00;25.77;;;2.60;99.90;;;;;;5030550;28;20199;-73
2021/03/09 01:48:11;;;;;;;69.87;11.00;;;2.60;99.90;;;;;;5028357;28;20230;-74
2021/03/09 01:50:42;;;;;;;27.97;5.80;;;2.60;99.90;;;;;;5030377;28;20279;-73
2021/03/09 01:53:08;;;;;;;11.33;2.77;;;2.60;99.90;;;;;;5030935;28;20312;-73
2021/03/09 01:55:35;;;;;;;6.33;2.03;;;2.60;99.90;;;;;;5031401;28;20221;-74
2021/03/09 01:58:08;;;;;;;3.37;1.60;;;2.60;99.90;;;;;;5031795;28;20203;-74
2021/03/09 02:00:35;;;;;;;2.93;1.40;;;2.50;99.90;;;;;;5030087;28;20198;-73
2021/03/09 02:03:01;;;;;;;4.77;1.30;;;2.50;99.90;;;;;;5031084;28;20209;-73
2021/03/09 02:05:28;;;;;;;2.60;1.20;;;2.50;99.90;;;;;;5032350;28;20226;-74
2021/03/09 02:07:55;;;;;;;2.00;1.10;;;2.40;99.90;;;;;;5031850;28;20222;-73
2021/03/09 02:10:22;;;;;;;0.73;0.70;;;2.40;99.90;;;;;;5030084;28;20309;-73
2021/03/09 02:12:58;;;;;;;0.80;0.60;;;2.40;99.90;;;;;;5032149;28;20194;-73
2021/03/09 02:15:34;;;;;;;1.23;0.57;;;2.40;99.90;;;;;;5042520;28;20324;-73
2021/03/09 02:18:07;;;;;;;0.60;0.60;;;2.30;99.90;;;;;;5030469;28;20198;-73
2021/03/09 02:21:06;;;;;;;0.60;0.50;;;2.30;99.90;;;;;;5029233;28;20202;-74
2021/03/09 02:24:07;;;;;;;1.87;0.70;;;2.30;99.90;;;;;;5038152;28;20337;-74
2021/03/09 02:26:55;;;;;;;1.57;0.93;;;2.30;99.90;;;;;;5029943;28;20320;-73
2021/03/09 02:29:37;;;;;;;1.00;0.70;;;2.30;99.90;;;;;;5029362;28;20209;-74
2021/03/09 02:32:07;;;;;;;1.70;1.00;;;2.20;99.90;;;;;;5031860;28;20186;-73
2021/03/09 02:34:40;;;;;;;1.10;1.00;;;2.20;99.90;;;;;;5030325;28;20260;-73
2021/03/09 02:37:10;;;;;;;2.93;0.90;;;2.20;99.90;;;;;;5029032;28;20203;-73
2021/03/09 02:39:39;;;;;;;1.40;0.93;;;2.10;99.90;;;;;;5062756;28;20259;-74
2021/03/09 02:42:07;;;;;;;1.13;1.00;;;2.10;99.90;;;;;;5031135;28;20194;-73
2021/03/09 02:44:36;;;;;;;1.07;0.93;;;2.10;99.90;;;;;;5029443;28;20293;-73
2021/03/09 02:47:07;;;;;;;1.50;1.13;;;2.10;99.90;;;;;;5029790;28;20625;-73
2021/03/09 02:49:35;;;;;;;1.00;0.87;;;2.10;99.90;;;;;;5062119;28;20221;-73
2021/03/09 02:52:03;;;;;;;1.73;1.07;;;2.10;99.90;;;;;;5029348;28;20220;-74
2021/03/09 02:54:31;;;;;;;1.20;1.10;;;2.00;99.90;;;;;;5031110;28;20254;-73
2021/03/09 02:56:59;;;;;;;1.47;1.07;;;2.00;99.90;;;;;;5030390;28;20603;-73
2021/03/09 02:59:27;;;;;;;2.20;1.20;;;2.00;99.90;;;;;;5030697;28;20290;-74
2021/03/09 03:01:55;;;;;;;2.90;1.43;;;1.90;99.90;;;;;;5031207;28;20190;-73
2021/03/09 03:04:24;;;;;;;2.87;1.70;;;1.90;99.90;;;;;;5046050;28;20222;-73
2021/03/09 03:06:51;;;;;;;3.70;2.00;;;1.90;99.90;;;;;;5059087;28;20198;-73
2021/03/09 03:09:20;;;;;;;1.83;1.63;;;1.80;99.90;;;;;;5024796;28;20202;-73
2021/03/09 03:11:49;;;;;;;2.13;1.67;;;1.70;99.90;;;;;;5062018;28;20214;-73
2021/03/09 03:14:17;;;;;;;2.23;1.83;;;1.70;99.90;;;;;;5028573;28;20200;-73
2021/03/09 03:16:45;;;;;;;2.83;1.73;;;1.60;99.90;;;;;;5020996;28;20293;-73
2021/03/09 03:19:14;;;;;;;3.43;1.60;;;1.60;99.90;;;;;;5030803;28;20205;-73
2021/03/09 03:21:42;;;;;;;3.00;2.00;;;1.50;99.90;;;;;;5021727;28;20194;-73
2021/03/09 03:24:12;;;;;;;2.77;1.47;;;1.50;99.90;;;;;;5030581;28;20190;-73
2021/03/09 03:26:41;;;;;;;1.93;1.67;;;1.40;99.90;;;;;;5054300;28;20214;-73
2021/03/09 03:29:10;;;;;;;2.87;1.80;;;1.40;99.90;;;;;;5030238;28;20670;-73
2021/03/09 03:31:37;;;;;;;3.73;1.70;;;1.40;99.90;;;;;;5021537;28;20229;-73
2021/03/09 03:34:04;;;;;;;2.63;1.60;;;1.30;99.90;;;;;;5030590;28;20190;-73
2021/03/09 03:36:32;;;;;;;3.23;1.70;;;1.30;99.90;;;;;;5029134;28;20236;-73
2021/03/09 03:39:00;;;;;;;2.70;1.50;;;1.30;99.90;;;;;;5030231;28;20194;-73
2021/03/09 03:41:26;;;;;;;3.30;1.63;;;1.30;99.90;;;;;;5026235;28;20202;-73
2021/03/09 03:43:53;;;;;;;3.33;1.43;;;1.30;99.90;;;;;;5029973;28;20201;-73
2021/03/09 03:46:19;;;;;;;1.63;1.30;;;1.30;99.90;;;;;;5029346;28;20209;-74
2021/03/09 03:48:46;;;;;;;2.83;1.10;;;1.30;99.90;;;;;;5021952;28;20230;-73
2021/03/09 03:51:15;;;;;;;2.30;1.60;;;1.20;99.90;;;;;;5012539;28;20225;-73
2021/03/09 03:53:49;;;;;;;2.17;1.30;;;1.20;99.90;;;;;;5045212;28;20568;-73
2021/03/09 03:56:22;;;;;;;3.30;1.80;;;1.20;99.90;;;;;;5029746;28;20202;-73
2021/03/09 03:58:53;;;;;;;4.00;1.57;;;1.20;99.90;;;;;;5019246;28;20191;-73
2021/03/09 04:01:21;;;;;;;2.97;1.70;;;1.20;99.90;;;;;;5028037;28;20205;-73
2021/03/09 04:03:51;;;;;;;6.03;1.87;;;1.10;99.90;;;;;;5028635;28;20206;-73
2021/03/09 04:06:22;;;;;;;1.67;1.57;;;1.10;99.90;;;;;;5022004;28;20277;-73
2021/03/09 04:08:49;;;;;;;2.23;1.60;;;1.10;99.90;;;;;;5029960;28;20195;-74
2021/03/09 04:11:17;;;;;;;3.20;1.50;;;1.10;99.90;;;;;;5061074;28;20215;-73
2021/03/09 04:13:45;;;;;;;2.03;1.53;;;1.10;99.90;;;;;;5028693;28;20260;-73
2021/03/09 04:16:13;;;;;;;6.40;2.50;;;1.10;99.90;;;;;;5027039;28;20202;-73
2021/03/09 04:18:41;;;;;;;7.00;3.50;;;1.10;99.90;;;;;;5030156;28;20225;-73
2021/03/09 04:21:08;;;;;;;10.10;3.10;;;1.00;99.90;;;;;;5030070;28;20197;-73
2021/03/09 04:23:37;;;;;;;8.63;3.70;;;1.00;99.90;;;;;;5028364;28;20229;-72
2021/03/09 04:26:04;;;;;;;7.17;2.83;;;1.00;99.90;;;;;;5028172;28;20205;-73
2021/03/09 04:28:32;;;;;;;4.80;2.60;;;1.00;99.90;;;;;;5029129;28;20576;-73
2021/03/09 04:31:00;;;;;;;9.57;2.83;;;1.00;99.90;;;;;;5039838;28;20615;-73
2021/03/09 04:33:28;;;;;;;9.13;3.60;;;1.10;99.90;;;;;;5027749;28;20194;-73
2021/03/09 04:35:56;;;;;;;11.13;3.57;;;1.10;99.90;;;;;;5028640;28;20551;-73
2021/03/09 04:38:23;;;;;;;5.20;2.67;;;1.10;99.90;;;;;;5029186;28;20721;-73
2021/03/09 04:40:52;;;;;;;6.00;2.90;;;1.00;99.90;;;;;;5061178;28;20650;-73
2021/03/09 04:43:19;;;;;;;3.43;2.17;;;1.00;99.90;;;;;;5060961;28;20202;-73
2021/03/09 04:45:46;;;;;;;4.90;2.43;;;1.00;99.90;;;;;;5027511;28;20625;-73
2021/03/09 04:48:13;;;;;;;4.83;2.60;;;1.00;99.90;;;;;;5029453;28;20809;-73
2021/03/09 04:50:43;;;;;;;3.00;2.00;;;1.00;99.90;;;;;;5045082;28;20215;-73
2021/03/09 04:53:10;;;;;;;3.10;2.00;;;0.90;99.90;;;;;;5028252;28;20271;-73
2021/03/09 04:55:37;;;;;;;2.40;1.80;;;0.80;99.90;;;;;;5028161;28;20201;-73
2021/03/09 04:58:03;;;;;;;2.47;2.17;;;0.80;99.90;;;;;;5029513;28;20217;-73
2021/03/09 05:00:30;;;;;;;4.73;1.77;;;0.80;99.90;;;;;;5027920;28;20269;-73
2021/03/09 05:02:57;;;;;;;1.80;1.40;;;0.70;99.90;;;;;;5027239;28;20203;-73
2021/03/09 05:05:25;;;;;;;1.63;1.30;;;0.70;99.90;;;;;;5023336;28;20260;-73
2021/03/09 05:07:53;;;;;;;2.60;1.63;;;0.80;99.90;;;;;;5027788;28;20210;-73
2021/03/09 05:10:20;;;;;;;2.27;1.30;;;0.80;99.90;;;;;;5029089;28;20202;-73
2021/03/09 05:12:48;;;;;;;1.93;1.40;;;0.80;99.90;;;;;;5030695;28;20206;-73
2021/03/09 05:15:17;;;;;;;2.57;1.57;;;0.80;99.90;;;;;;5018421;28;20287;-73
2021/03/09 05:17:43;;;;;;;2.17;1.40;;;0.90;99.90;;;;;;5029257;28;20209;-73
2021/03/09 05:20:12;;;;;;;1.83;1.43;;;0.90;99.90;;;;;;5032079;28;20213;-73
2021/03/09 05:22:40;;;;;;;3.93;1.70;;;0.90;99.90;;;;;;5031861;28;20264;-73
2021/03/09 05:25:11;;;;;;;6.70;2.00;;;0.80;99.90;;;;;;5030725;28;20206;-73
2021/03/09 05:27:37;;;;;;;8.03;2.17;;;0.90;99.90;;;;;;5064772;28;20236;-73
2021/03/09 05:30:05;;;;;;;7.93;2.47;;;0.90;99.90;;;;;;5030843;28;20234;-73
2021/03/09 05:32:32;;;;;;;6.13;2.33;;;0.90;99.90;;;;;;5033025;28;20186;-73
2021/03/09 05:34:58;;;;;;;8.33;2.43;;;1.00;99.90;;;;;;5031803;28;20558;-72
2021/03/09 05:37:24;;;;;;;6.63;2.50;;;1.00;99.90;;;;;;5028349;28;20210;-73
2021/03/09 05:39:52;;;;;;;6.47;2.63;;;1.00;99.90;;;;;;5047200;28;20209;-74
2021/03/09 05:42:19;;;;;;;7.63;2.73;;;1.00;99.90;;;;;;5064588;28;20578;-74
2021/03/09 05:44:46;;;;;;;6.50;2.50;;;1.00;99.90;;;;;;5032129;28;20277;-74
2021/03/09 05:47:13;;;;;;;4.40;2.37;;;1.00;99.90;;;;;;5030709;28;20276;-74
2021/03/09 05:49:40;;;;;;;5.87;2.27;;;1.10;99.90;;;;;;5031469;28;20198;-74
2021/03/09 05:52:09;;;;;;;4.70;2.27;;;1.10;99.90;;;;;;5030486;28;20218;-73
2021/03/09 05:54:36;;;;;;;6.57;2.37;;;1.10;99.90;;;;;;5031641;28;20198;-73
2021/03/09 05:57:03;;;;;;;4.73;2.07;;;1.20;99.90;;;;;;5030968;28;20250;-74
2021/03/09 05:59:30;;;;;;;6.07;2.47;;;1.30;99.90;;;;;;5064003;28;20216;-73
2021/03/09 06:01:57;;;;;;;5.30;2.37;;;1.40;99.90;;;;;;5050254;28;20240;-73
2021/03/09 06:04:24;;;;;;;7.63;2.77;;;1.30;99.90;;;;;;5026501;28;20202;-73
2021/03/09 06:06:50;;;;;;;9.10;2.50;;;1.30;99.90;;;;;;5028312;28;20195;-73
2021/03/09 06:09:38;;;;;;;4.63;2.83;;;1.40;99.90;;;;;;5030225;28;20202;-74
2021/03/09 06:12:12;;;;;;;6.17;2.50;;;1.40;99.90;;;;;;5027652;28;20233;-73
2021/03/09 06:14:40;;;;;;;5.27;2.70;;;1.40;99.90;;;;;;5031218;28;20198;-73
2021/03/09 06:17:10;;;;;;;3.97;2.20;;;1.50;99.90;;;;;;5031944;28;20206;-73
2021/03/09 06:19:47;;;;;;;4.30;2.30;;;1.50;99.90;;;;;;5063456;28;20316;-73
2021/03/09 06:22:16;;;;;;;4.83;2.70;;;1.60;99.90;;;;;;5031623;28;20195;-73
2021/03/09 06:24:43;;;;;;;4.77;2.30;;;1.60;99.90;;;;;;5029876;28;20543;-73
2021/03/09 06:27:25;;;;;;;5.07;2.10;;;1.70;99.90;;;;;;5031801;28;20229;-73
2021/03/09 06:29:52;;;;;;;3.93;2.03;;;1.80;99.90;;;;;;5031292;28;20210;-73
2021/03/09 06:32:19;;;;;;;2.63;1.93;;;1.80;99.90;;;;;;5029938;28;20195;-73
2021/03/09 06:34:45;;;;;;;4.00;1.90;;;1.90;99.90;;;;;;5031570;28;20607;-73
2021/03/09 06:37:15;;;;;;;2.73;2.20;;;2.00;99.90;;;;;;5027383;28;20190;-73
2021/03/09 06:39:43;;;;;;;2.60;1.77;;;2.10;99.90;;;;;;5029807;28;20198;-73
2021/03/09 06:42:10;;;;;;;3.57;1.90;;;2.20;99.90;;;;;;5029807;28;20292;-74
2021/03/09 06:44:39;;;;;;;3.23;1.80;;;2.30;99.90;;;;;;5030885;28;20561;-73
2021/03/09 06:47:05;;;;;;;4.33;1.80;;;2.40;99.90;;;;;;5029704;28;20242;-73
2021/03/09 06:49:48;;;;;;;3.60;2.30;;;2.40;99.90;;;;;;5029630;28;20289;-74
2021/03/09 06:52:15;;;;;;;5.17;2.20;;;2.50;99.90;;;;;;5019458;28;20560;-74
2021/03/09 06:54:46;;;;;;;4.43;2.10;;;2.60;99.90;;;;;;5030585;28;20277;-74
2021/03/09 06:57:12;;;;;;;4.20;2.30;;;2.70;99.90;;;;;;5030812;28;20264;-74
2021/03/09 06:59:42;;;;;;;4.50;2.93;;;2.80;99.90;;;;;;5029068;28;20198;-74
2021/03/09 07:02:10;;;;;;;4.73;2.90;;;3.10;99.90;;;;;;5028084;28;20616;-73
2021/03/09 07:04:38;;;;;;;3.30;2.23;;;3.50;99.90;;;;;;5030584;28;20199;-73
2021/03/09 07:07:06;;;;;;;7.70;2.27;;;3.90;99.90;;;;;;5030981;28;20206;-73
2021/03/09 07:09:33;;;;;;;4.93;2.57;;;4.40;99.90;;;;;;5030389;28;20251;-73
2021/03/09 07:12:02;;;;;;;4.30;2.37;;;4.60;99.90;;;;;;5029471;28;20772;-73
2021/03/09 07:14:31;;;;;;;7.60;4.20;;;5.00;99.90;;;;;;5030239;28;20593;-73
2021/03/09 07:17:02;;;;;;;8.03;4.23;;;5.50;99.90;;;;;;5030326;28;20219;-72
2021/03/09 07:19:37;;;;;;;8.10;3.60;;;6.10;99.90;;;;;;5030174;28;20222;-73
2021/03/09 07:22:06;;;;;;;9.43;4.50;;;6.80;99.90;;;;;;5030282;28;20186;-72
2021/03/09 07:24:33;;;;;;;11.37;5.00;;;7.50;99.90;;;;;;5028382;28;20326;-72
2021/03/09 07:27:11;;;;;;;13.10;5.50;;;8.10;99.90;;;;;;5022533;28;20198;-74
2021/03/09 07:29:43;;;;;;;12.10;5.83;;;8.90;99.90;;;;;;5027913;28;20621;-72
2021/03/09 07:32:11;;;;;;;14.53;6.23;;;9.70;99.90;;;;;;5030085;28;20216;-73
2021/03/09 07:34:39;;;;;;;13.93;6.43;;;10.50;99.90;;;;;;5028389;28;20204;-73
2021/03/09 07:37:06;;;;;;;10.77;5.50;;;11.30;99.90;;;;;;5024736;28;20225;-73
2021/03/09 07:39:37;;;;;;;6.90;4.33;;;11.90;99.90;;;;;;5027495;28;20337;-70
2021/03/09 07:42:05;;;;;;;8.77;4.90;;;12.40;99.30;;;;;;5028364;28;20190;-74
2021/03/09 07:44:32;;;;;;;6.87;4.03;;;12.90;98.10;;;;;;5029972;28;20283;-74
2021/03/09 07:47:00;;;;;;;7.50;4.37;;;13.20;96.60;;;;;;5034885;28;20275;-73
2021/03/09 07:49:27;;;;;;;8.10;3.97;;;13.50;95.60;;;;;;5021998;28;20658;-72
2021/03/09 07:52:14;;;;;;;10.17;5.00;;;13.80;95.20;;;;;;5029600;28;20266;-72
2021/03/09 07:55:18;;;;;;;9.93;4.83;;;14.10;93.40;;;;;;5028480;28;20215;-73
2021/03/09 07:57:45;;;;;;;5.90;3.47;;;14.50;92.10;;;;;;5048801;28;20201;-72
2021/03/09 08:00:13;;;;;;;4.50;3.10;;;14.80;91.40;;;;;;5024642;28;20785;-72
2021/03/09 08:02:52;;;;;;;5.23;2.87;;;15.00;89.40;;;;;;5021906;28;20285;-72
2021/03/09 08:05:21;;;;;;;4.97;2.87;;;15.10;86.90;;;;;;5024514;28;20194;-72
2021/03/09 08:07:57;;;;;;;4.80;2.30;;;15.10;84.20;;;;;;5007697;28;20198;-71
2021/03/09 08:10:44;;;;;;;3.43;2.40;;;15.00;82.80;;;;;;5053055;28;20279;-71
2021/03/09 08:13:25;;;;;;;3.87;2.63;;;14.80;82.70;;;;;;5022068;28;20190;-71
2021/03/09 08:16:29;;;;;;;4.20;2.60;;;14.90;81.70;;;;;;5024120;28;20229;-71
2021/03/09 08:18:57;;;;;;;4.73;2.90;;;15.30;80.90;;;;;;5022822;28;20205;-72
2021/03/09 08:21:55;;;;;;;8.47;3.10;;;15.50;77.80;;;;;;5026537;28;20186;-71
2021/03/09 08:24:53;;;;;;;7.27;3.40;;;15.60;76.10;;;;;;5025327;28;20586;-71
2021/03/09 08:27:45;;;;;;;10.37;4.77;;;15.70;74.30;;;;;;5054859;28;20317;-72
2021/03/09 08:30:39;;;;;;;7.93;3.90;;;16.00;71.70;;;;;;5008127;28;20208;-72
2021/03/09 08:33:24;;;;;;;7.27;3.63;;;16.40;69.70;;;;;;5024827;28;20191;-72
2021/03/09 08:35:50;;;;;;;8.23;3.70;;;16.70;67.80;;;;;;5024404;28;20203;-69
2021/03/09 08:38:21;;;;;;;8.77;3.80;;;16.90;66.40;;;;;;5022117;28;20194;-72
2021/03/09 08:41:14;;;;;;;9.50;4.10;;;17.10;65.60;;;;;;5019368;28;20261;-73
2021/03/09 08:43:42;;;;;;;8.83;4.47;;;17.60;63.40;;;;;;5011963;28;20901;-73
2021/03/09 08:46:11;;;;;;;10.03;5.40;;;18.30;63.10;;;;;;5025233;28;20191;-74
2021/03/09 08:48:54;;;;;;;10.17;5.10;;;18.90;59.80;;;;;;5028919;28;20230;-73
2021/03/09 08:51:50;;;;;;;11.43;6.33;;;19.60;59.00;;;;;;5028064;28;20218;-74
2021/03/09 08:54:32;;;;;;;16.70;7.57;;;20.30;57.90;;;;;;5030453;28;20191;-74
2021/03/09 08:57:01;;;;;;;18.20;8.63;;;20.90;55.80;;;;;;5025332;28;20227;-74
2021/03/09 08:59:30;;;;;;;16.60;8.60;;;21.20;53.80;;;;;;5029179;28;20486;-74
2021/03/09 09:02:15;;;;;;;13.45;7.38;;;21.40;52.20;;;;;;5030777;28;20198;-73
2021/03/09 09:04:44;;;;;;;14.83;7.80;;;21.50;51.50;;;;;;5058089;28;20206;-72
2021/03/09 09:07:25;;;;;;;13.43;7.45;;;21.60;50.00;;;;;;5030517;28;20191;-73
2021/03/09 09:09:55;;;;;;;12.05;6.50;;;21.90;49.60;;;;;;5028990;28;20202;-71
2021/03/09 09:12:31;;;;;;;8.77;5.13;;;22.10;49.40;;;;;;5043853;28;20214;-69
2021/03/09 09:15:11;;;;;;;6.45;4.45;;;22.40;49.00;;;;;;5026226;28;20625;-71
2021/03/09 09:17:39;;;;;;;7.50;4.28;;;22.70;47.50;;;;;;5025239;28;20226;-71
2021/03/09 09:20:08;;;;;;;5.63;4.53;;;23.10;47.20;;;;;;5024631;28;20241;-71
2021/03/09 09:22:35;;;;;;;6.00;4.10;;;23.40;46.10;;;;;;5024427;28;21300;-73
2021/03/09 09:25:06;;;;;;;8.32;4.53;;;23.60;46.00;;;;;;5025161;28;20200;-73
2021/03/09 09:27:47;;;;;;;5.38;3.63;;;23.70;45.30;;;;;;5029841;28;20193;-71
2021/03/09 09:30:17;;;;;;;40.78;8.27;;;23.50;44.00;;;;;;5025303;28;20243;-71
2021/03/09 09:32:49;;;;;;;33.13;7.03;;;23.50;43.80;;;;;;5025719;28;20252;-71
2021/03/09 09:35:16;;;;;;;6.38;4.63;;;23.50;43.30;;;;;;5024954;28;20242;-71
2021/03/09 09:37:48;;;;;;;7.85;4.72;;;23.50;42.50;;;;;;5029065;28;20205;-73
2021/03/09 09:40:17;;;;;;;5.45;3.90;;;23.00;42.20;;;;;;5059117;28;20286;-72
2021/03/09 09:42:52;;;;;;;37.00;8.93;;;22.40;42.70;;;;;;5028886;28;21148;-73
2021/03/09 09:45:19;;;;;;;17.27;6.75;;;21.90;42.90;;;;;;5028046;28;20198;-72
2021/03/09 09:47:46;;;;;;;7.50;5.15;;;21.70;42.50;;;;;;5027679;28;20226;-71
2021/03/09 09:50:13;;;;;;;9.43;5.20;;;21.70;42.30;;;;;;5026879;28;20217;-71
2021/03/09 09:52:40;;;;;;;6.95;4.57;;;21.80;42.20;;;;;;5010953;28;20225;-74
2021/03/09 09:55:08;;;;;;;8.95;5.15;;;22.10;42.30;;;;;;5025610;28;20213;-72
2021/03/09 09:57:35;;;;;;;6.65;4.60;;;22.30;41.50;;;;;;5026241;28;20207;-72
2021/03/09 10:00:12;;;;;;;6.63;4.90;;;22.50;41.50;;;;;;5025094;28;20289;-72
2021/03/09 10:02:40;;;;;;;6.68;5.00;;;22.70;40.80;;;;;;5028123;28;20206;-71
2021/03/09 10:05:23;;;;;;;4.95;4.45;;;22.70;40.80;;;;;;5027771;28;20198;-72
2021/03/09 10:07:50;;;;;;;5.10;3.65;;;22.80;40.60;;;;;;5027916;28;20202;-70
2021/03/09 10:10:16;;;;;;;54.78;10.30;;;23.00;40.80;;;;;;5026645;28;20613;-72
2021/03/09 10:12:44;;;;;;;15.07;4.30;;;23.30;40.80;;;;;;5029526;28;20287;-74
2021/03/09 10:15:12;;;;;;;6.10;3.90;;;23.60;40.40;;;;;;5038650;28;20720;-73
2021/03/09 10:17:39;;;;;;;25.08;5.50;;;23.70;40.00;;;;;;5004494;28;20218;-74
2021/03/09 10:20:18;;;;;;;15.30;5.13;;;23.70;39.30;;;;;;5025640;28;20294;-73
2021/03/09 10:22:45;;;;;;;8.82;4.38;;;23.70;38.90;;;;;;5023762;28;20210;-73
2021/03/09 10:25:14;;;;;;;4.40;3.30;;;23.50;38.50;;;;;;5055748;28;20741;-73
2021/03/09 10:27:41;;;;;;;5.38;3.53;;;23.40;38.70;;;;;;5024897;28;20199;-72
2021/03/09 10:30:10;;;;;;;5.30;3.47;;;23.40;38.40;;;;;;5025167;28;20222;-72
2021/03/09 10:32:49;;;;;;;6.55;4.03;;;23.30;38.40;;;;;;5027965;28;20786;-73
2021/03/09 10:35:16;;;;;;;5.88;3.47;;;23.10;38.10;;;;;;5027550;28;20725;-73
2021/03/09 10:37:43;;;;;;;4.75;3.72;;;23.00;38.00;;;;;;5026977;28;20536;-71
2021/03/09 10:40:12;;;;;;;5.82;3.50;;;23.00;38.20;;;;;;5027977;28;20874;-72
2021/03/09 10:42:47;;;;;;;4.63;3.35;;;23.10;38.20;;;;;;5026341;28;20256;-72
2021/03/09 10:45:23;;;;;;;6.95;3.50;;;23.00;38.10;;;;;;5026255;28;20205;-72
2021/03/09 10:47:51;;;;;;;8.57;4.25;;;23.20;38.20;;;;;;5023746;28;20233;-73
2021/03/09 10:50:20;;;;;;;6.53;4.15;;;23.30;37.90;;;;;;5027325;28;20199;-72
2021/03/09 10:52:46;;;;;;;5.30;4.10;;;23.00;37.80;;;;;;5026020;28;20382;-72
2021/03/09 10:55:13;;;;;;;5.90;4.15;;;22.50;37.50;;;;;;5023234;28;21032;-73
2021/03/09 10:57:41;;;;;;;6.65;4.20;;;21.60;37.60;;;;;;5029648;28;20230;-73
2021/03/09 11:00:09;;;;;;;6.35;4.47;;;20.70;38.30;;;;;;5021539;28;20663;-71
2021/03/09 11:02:37;;;;;;;6.50;4.32;;;19.90;38.80;;;;;;5025890;28;20209;-72
2021/03/09 11:05:05;;;;;;;7.22;4.57;;;19.20;39.20;;;;;;5023026;28;20591;-72
2021/03/09 11:07:31;;;;;;;8.82;4.65;;;18.50;39.50;;;;;;5026370;28;20190;-71
2021/03/09 11:09:58;;;;;;;8.35;5.85;;;17.80;39.70;;;;;;5025227;28;20582;-72
2021/03/09 11:12:24;;;;;;;8.30;5.13;;;17.00;40.00;;;;;;5024516;28;20777;-72
2021/03/09 11:14:51;;;;;;;11.13;5.70;;;16.40;40.50;;;;;;5027197;28;20737;-72
2021/03/09 11:17:18;;;;;;;9.23;5.03;;;15.80;40.90;;;;;;5024768;28;20241;-72
2021/03/09 11:19:45;;;;;;;7.40;4.90;;;15.40;41.30;;;;;;5027425;28;20278;-72
2021/03/09 11:22:11;;;;;;;10.03;5.00;;;14.90;41.70;;;;;;5024067;28;20197;-72
2021/03/09 11:24:38;;;;;;;9.60;5.10;;;14.50;42.10;;;;;;5026031;28;20231;-71
2021/03/09 11:27:05;;;;;;;6.73;4.57;;;14.10;42.40;;;;;;5024462;28;20210;-71
2021/03/09 11:29:33;;;;;;;8.40;4.87;;;13.80;42.90;;;;;;5027708;28;20198;-72
2021/03/09 11:32:00;;;;;;;10.13;4.80;;;13.50;42.90;;;;;;5024307;28;20310;-71
2021/03/09 11:34:27;;;;;;;6.77;4.03;;;13.20;43.00;;;;;;5025952;28;20596;-73
2021/03/09 11:36:54;;;;;;;7.30;3.97;;;12.90;43.10;;;;;;5024070;28;20204;-72
2021/03/09 11:39:21;;;;;;;3.93;2.70;;;12.60;43.20;;;;;;5026239;28;20271;-72
2021/03/09 11:41:50;;;;;;;4.47;2.77;;;12.30;43.40;;;;;;5027157;28;20700;-72
2021/03/09 11:44:16;;;;;;;3.90;2.43;;;12.00;43.50;;;;;;5023192;28;20195;-72
2021/03/09 11:46:43;;;;;;;3.23;2.47;;;11.70;43.60;;;;;;5025846;28;20286;-71
2021/03/09 11:49:10;;;;;;;3.17;2.23;;;11.50;43.90;;;;;;5024640;28;20202;-73
2021/03/09 11:51:37;;;;;;;3.73;2.30;;;11.70;44.20;;;;;;5024654;28;20205;-74
2021/03/09 11:54:05;;;;;;;2.50;2.00;;;11.80;44.10;;;;;;5027092;28;20283;-71
2021/03/09 11:56:32;;;;;;;2.40;1.93;;;11.80;44.00;;;;;;5022508;28;20278;-72
2021/03/09 11:58:59;;;;;;;3.03;2.23;;;11.70;44.00;;;;;;5036839;28;20202;-72
2021/03/09 12:01:26;;;;;;;3.23;2.40;;;11.80;43.90;;;;;;5024295;28;20197;-72
2021/03/09 12:03:53;;;;;;;3.60;2.43;;;11.90;43.60;;;;;;5024687;28;20256;-71
2021/03/09 12:06:20;;;;;;;4.50;2.63;;;11.60;43.30;;;;;;5025440;28;20319;-73
2021/03/09 12:08:47;;;;;;;4.50;2.77;;;11.20;43.60;;;;;;5024831;28;20544;-73
2021/03/09 12:11:16;;;;;;;6.13;3.70;;;11.10;44.10;;;;;;5021616;28;20615;-72
2021/03/09 12:13:43;;;;;;;6.27;3.33;;;11.00;44.50;;;;;;5022351;28;20196;-73
2021/03/09 12:16:10;;;;;;;5.67;3.47;;;10.80;44.70;;;;;;5027113;28;20256;-70
2021/03/09 12:18:36;;;;;;;33.67;6.97;;;10.60;44.90;;;;;;5026231;28;20533;-72
2021/03/09 12:21:04;;;;;;;28.73;7.13;;;10.40;45.60;;;;;;5026056;28;20303;-73
2021/03/09 12:23:31;;;;;;;25.10;6.53;;;10.10;46.10;;;;;;5029514;28;20606;-74
2021/03/09 12:25:57;;;;;;;14.57;5.43;;;9.90;47.30;;;;;;5028326;28;20625;-73
2021/03/09 12:28:25;;;;;;;7.60;4.50;;;9.60;47.60;;;;;;5029361;28;20199;-73
2021/03/09 12:30:51;;;;;;;9.33;5.07;;;9.40;47.90;;;;;;5030909;28;20715;-72
2021/03/09 12:33:18;;;;;;;11.40;4.73;;;9.30;48.30;;;;;;5030114;28;20213;-72
2021/03/09 12:35:45;;;;;;;6.23;4.03;;;9.10;48.40;;;;;;5029343;28;20682;-73
2021/03/09 12:38:11;;;;;;;7.17;3.93;;;9.00;48.60;;;;;;5058858;28;20265;-72
2021/03/09 12:40:38;;;;;;;7.17;3.53;;;9.00;48.60;;;;;;5027982;28;20204;-71
2021/03/09 12:43:04;;;;;;;6.83;3.77;;;9.10;48.80;;;;;;5030326;28;20200;-72
2021/03/09 12:45:32;;;;;;;7.87;3.73;;;9.10;48.90;;;;;;5029439;28;20190;-71
2021/03/09 12:47:58;;;;;;;9.53;4.07;;;9.10;48.90;;;;;;5029994;28;20313;-72
2021/03/09 12:50:25;;;;;;;6.53;4.20;;;9.20;49.20;;;;;;5041699;28;20189;-72
2021/03/09 12:52:51;;;;;;;5.73;4.03;;;9.10;49.20;;;;;;5030890;28;20209;-72
2021/03/09 12:55:18;;;;;;;7.73;4.23;;;9.10;49.40;;;;;;5028034;28;20649;-73
2021/03/09 12:57:45;;;;;;;8.83;3.97;;;9.10;49.70;;;;;;5028138;28;20199;-71
2021/03/09 13:00:14;;;;;;;7.20;3.67;;;9.10;49.70;;;;;;5012001;28;21105;-71
2021/03/09 13:02:42;;;;;;;8.40;3.93;;;9.00;49.70;;;;;;5026558;28;20707;-72